Aviation Digital Data Service (ADDS)

Output produced by TAFs form (1339 UTC 23 June 2018)
found at http://www.aviationweather.gov/adds/tafs/
 
KBHM 231253Z 34009KT 10SM TS OVC011CB 24/22 A2998 RMK AO2 LTG DSNT W-NE RAE01 TSB07 PRESRR SLP145 OCNL LTGIC NW-N TS NW-N MOV E P0000 T02390222
KBHM 231331Z 2314/2412 34010G28KT 4SM TSRA BKN010CB 
     FM231430 34008KT 4SM SHRA BKN020 
     FM231600 23008KT P6SM VCTS SCT020 BKN040CB 
     FM232200 VRB05KT P6SM BKN035 BKN150